sensor_id;sensor_type;location;lat;lon;timestamp;temperature;humidity
57753;DHT22;43583;53.132;6.574;2023-08-30T00:00:15;11.80;99.90
57753;DHT22;43583;53.132;6.574;2023-08-30T00:02:43;11.80;99.90
57753;DHT22;43583;53.132;6.574;2023-08-30T00:05:09;11.80;99.90
57753;DHT22;43583;53.132;6.574;2023-08-30T00:07:35;11.70;99.90
57753;DHT22;43583;53.132;6.574;2023-08-30T00:10:01;11.70;99.90
57753;DHT22;43583;53.132;6.574;2023-08-30T00:12:27;11.60;99.90
57753;DHT22;43583;53.132;6.574;2023-08-30T00:14:53;11.40;99.90
57753;DHT22;43583;53.132;6.574;2023-08-30T00:17:19;11.40;99.90
57753;DHT22;43583;53.132;6.574;2023-08-30T00:19:45;11.40;99.90
57753;DHT22;43583;53.132;6.574;2023-08-30T00:22:11;11.40;99.90
57753;DHT22;43583;53.132;6.574;2023-08-30T00:24:38;11.40;99.90
57753;DHT22;43583;53.132;6.574;2023-08-30T00:27:04;11.30;99.90
57753;DHT22;43583;53.132;6.574;2023-08-30T00:29:30;11.30;99.90
57753;DHT22;43583;53.132;6.574;2023-08-30T00:31:56;11.30;99.90
57753;DHT22;43583;53.132;6.574;2023-08-30T00:34:21;11.30;99.90
57753;DHT22;43583;53.132;6.574;2023-08-30T00:36:47;11.30;99.90
57753;DHT22;43583;53.132;6.574;2023-08-30T00:39:13;11.30;99.90
57753;DHT22;43583;53.132;6.574;2023-08-30T00:41:39;11.20;99.90
57753;DHT22;43583;53.132;6.574;2023-08-30T00:44:05;11.20;99.90
57753;DHT22;43583;53.132;6.574;2023-08-30T00:46:35;11.20;99.90
57753;DHT22;43583;53.132;6.574;2023-08-30T00:49:01;11.20;99.90
57753;DHT22;43583;53.132;6.574;2023-08-30T00:51:28;11.20;99.90
57753;DHT22;43583;53.132;6.574;2023-08-30T00:53:59;11.20;99.90
57753;DHT22;43583;53.132;6.574;2023-08-30T00:56:27;11.10;99.90
57753;DHT22;43583;53.132;6.574;2023-08-30T00:58:55;11.20;99.90
57753;DHT22;43583;53.132;6.574;2023-08-30T01:01:21;11.10;99.90
57753;DHT22;43583;53.132;6.574;2023-08-30T01:03:47;11.10;99.90
57753;DHT22;43583;53.132;6.574;2023-08-30T01:06:13;11.10;99.90
57753;DHT22;43583;53.132;6.574;2023-08-30T01:08:40;11.10;99.90
57753;DHT22;43583;53.132;6.574;2023-08-30T01:11:24;11.10;99.90
57753;DHT22;43583;53.132;6.574;2023-08-30T01:14:32;11.10;99.90
57753;DHT22;43583;53.132;6.574;2023-08-30T01:17:00;11.10;99.90
57753;DHT22;43583;53.132;6.574;2023-08-30T01:19:42;11.10;99.90
57753;DHT22;43583;53.132;6.574;2023-08-30T01:22:17;11.10;99.90
57753;DHT22;43583;53.132;6.574;2023-08-30T01:24:53;11.10;99.90
57753;DHT22;43583;53.132;6.574;2023-08-30T01:27:21;11.10;99.90
57753;DHT22;43583;53.132;6.574;2023-08-30T01:29:49;11.10;99.90
57753;DHT22;43583;53.132;6.574;2023-08-30T01:32:15;11.10;99.90
57753;DHT22;43583;53.132;6.574;2023-08-30T01:34:42;11.10;99.90
57753;DHT22;43583;53.132;6.574;2023-08-30T01:37:11;11.10;99.90
57753;DHT22;43583;53.132;6.574;2023-08-30T01:39:40;11.10;99.90
57753;DHT22;43583;53.132;6.574;2023-08-30T01:42:07;11.00;99.90
57753;DHT22;43583;53.132;6.574;2023-08-30T01:44:33;11.00;99.90
57753;DHT22;43583;53.132;6.574;2023-08-30T01:47:00;11.00;99.90
57753;DHT22;43583;53.132;6.574;2023-08-30T01:49:30;10.90;99.90
57753;DHT22;43583;53.132;6.574;2023-08-30T01:51:59;10.90;99.90
57753;DHT22;43583;53.132;6.574;2023-08-30T01:54:26;10.90;99.90
57753;DHT22;43583;53.132;6.574;2023-08-30T01:56:53;10.90;99.90
57753;DHT22;43583;53.132;6.574;2023-08-30T01:59:18;10.90;99.90
57753;DHT22;43583;53.132;6.574;2023-08-30T02:01:44;10.90;99.90
57753;DHT22;43583;53.132;6.574;2023-08-30T02:04:09;10.90;99.90
57753;DHT22;43583;53.132;6.574;2023-08-30T02:06:53;10.90;99.90
57753;DHT22;43583;53.132;6.574;2023-08-30T02:09:27;11.00;99.90
57753;DHT22;43583;53.132;6.574;2023-08-30T02:11:54;11.00;99.90
57753;DHT22;43583;53.132;6.574;2023-08-30T02:14:20;11.00;99.90
57753;DHT22;43583;53.132;6.574;2023-08-30T02:16:47;11.00;99.90
57753;DHT22;43583;53.132;6.574;2023-08-30T02:19:14;11.00;99.90
57753;DHT22;43583;53.132;6.574;2023-08-30T02:21:42;11.10;99.90
57753;DHT22;43583;53.132;6.574;2023-08-30T02:24:08;11.10;99.90
57753;DHT22;43583;53.132;6.574;2023-08-30T02:26:34;11.10;99.90
57753;DHT22;43583;53.132;6.574;2023-08-30T02:28:59;11.10;99.90
57753;DHT22;43583;53.132;6.574;2023-08-30T02:31:25;11.20;99.90
57753;DHT22;43583;53.132;6.574;2023-08-30T02:33:50;11.10;99.90
57753;DHT22;43583;53.132;6.574;2023-08-30T02:36:16;11.20;99.90
57753;DHT22;43583;53.132;6.574;2023-08-30T02:38:42;11.20;99.90
57753;DHT22;43583;53.132;6.574;2023-08-30T02:41:07;11.30;99.90
57753;DHT22;43583;53.132;6.574;2023-08-30T02:43:33;11.30;99.90
57753;DHT22;43583;53.132;6.574;2023-08-30T02:45:58;11.40;99.90
57753;DHT22;43583;53.132;6.574;2023-08-30T02:48:24;11.50;99.90
57753;DHT22;43583;53.132;6.574;2023-08-30T02:50:49;11.50;99.90
57753;DHT22;43583;53.132;6.574;2023-08-30T02:53:15;11.60;99.90
57753;DHT22;43583;53.132;6.574;2023-08-30T02:55:41;11.70;99.90
57753;DHT22;43583;53.132;6.574;2023-08-30T02:58:06;11.70;99.90
57753;DHT22;43583;53.132;6.574;2023-08-30T03:00:32;11.70;99.90
57753;DHT22;43583;53.132;6.574;2023-08-30T03:02:59;11.80;99.90
57753;DHT22;43583;53.132;6.574;2023-08-30T03:05:25;11.90;99.90
57753;DHT22;43583;53.132;6.574;2023-08-30T03:07:52;11.90;99.90
57753;DHT22;43583;53.132;6.574;2023-08-30T03:10:18;11.90;99.90
57753;DHT22;43583;53.132;6.574;2023-08-30T03:12:43;11.90;99.90
57753;DHT22;43583;53.132;6.574;2023-08-30T03:15:09;11.90;99.90
57753;DHT22;43583;53.132;6.574;2023-08-30T03:17:35;11.90;99.90
57753;DHT22;43583;53.132;6.574;2023-08-30T03:20:02;11.80;99.90
57753;DHT22;43583;53.132;6.574;2023-08-30T03:22:29;11.80;99.90
57753;DHT22;43583;53.132;6.574;2023-08-30T03:24:55;11.80;99.90
57753;DHT22;43583;53.132;6.574;2023-08-30T03:27:21;11.80;99.90
57753;DHT22;43583;53.132;6.574;2023-08-30T03:29:47;11.70;99.90
57753;DHT22;43583;53.132;6.574;2023-08-30T03:32:18;11.60;99.90
57753;DHT22;43583;53.132;6.574;2023-08-30T03:34:47;11.50;99.90
57753;DHT22;43583;53.132;6.574;2023-08-30T03:37:14;11.50;99.90
57753;DHT22;43583;53.132;6.574;2023-08-30T03:39:40;11.40;99.90
57753;DHT22;43583;53.132;6.574;2023-08-30T03:42:06;11.30;99.90
57753;DHT22;43583;53.132;6.574;2023-08-30T03:44:31;11.30;99.90
57753;DHT22;43583;53.132;6.574;2023-08-30T03:46:57;11.20;99.90
57753;DHT22;43583;53.132;6.574;2023-08-30T03:49:23;11.20;99.90
57753;DHT22;43583;53.132;6.574;2023-08-30T03:51:48;11.10;99.90
57753;DHT22;43583;53.132;6.574;2023-08-30T03:54:14;11.00;99.90
57753;DHT22;43583;53.132;6.574;2023-08-30T03:56:45;11.00;99.90
57753;DHT22;43583;53.132;6.574;2023-08-30T03:59:14;11.00;99.90
57753;DHT22;43583;53.132;6.574;2023-08-30T04:01:39;11.00;99.90
57753;DHT22;43583;53.132;6.574;2023-08-30T04:04:05;10.90;99.90
57753;DHT22;43583;53.132;6.574;2023-08-30T04:06:31;10.90;99.90
57753;DHT22;43583;53.132;6.574;2023-08-30T04:08:57;10.90;99.90
57753;DHT22;43583;53.132;6.574;2023-08-30T04:11:23;10.90;99.90
57753;DHT22;43583;53.132;6.574;2023-08-30T04:13:48;10.80;99.90
57753;DHT22;43583;53.132;6.574;2023-08-30T04:16:14;10.80;99.90
57753;DHT22;43583;53.132;6.574;2023-08-30T04:18:39;10.80;99.90
57753;DHT22;43583;53.132;6.574;2023-08-30T04:21:05;10.90;99.90
57753;DHT22;43583;53.132;6.574;2023-08-30T04:23:33;10.80;99.90
57753;DHT22;43583;53.132;6.574;2023-08-30T04:25:58;10.90;99.90
57753;DHT22;43583;53.132;6.574;2023-08-30T04:28:24;10.80;99.90
57753;DHT22;43583;53.132;6.574;2023-08-30T04:30:53;10.80;99.90
57753;DHT22;43583;53.132;6.574;2023-08-30T04:33:19;10.80;99.90
57753;DHT22;43583;53.132;6.574;2023-08-30T04:35:53;10.90;99.90
57753;DHT22;43583;53.132;6.574;2023-08-30T04:38:19;10.90;99.90
57753;DHT22;43583;53.132;6.574;2023-08-30T04:40:46;10.90;99.90
57753;DHT22;43583;53.132;6.574;2023-08-30T04:43:12;11.00;99.90
57753;DHT22;43583;53.132;6.574;2023-08-30T04:45:38;11.10;99.90
57753;DHT22;43583;53.132;6.574;2023-08-30T04:48:04;11.10;99.90
57753;DHT22;43583;53.132;6.574;2023-08-30T04:50:30;11.20;99.90
57753;DHT22;43583;53.132;6.574;2023-08-30T04:52:56;11.20;99.90
57753;DHT22;43583;53.132;6.574;2023-08-30T04:55:24;11.30;99.90
57753;DHT22;43583;53.132;6.574;2023-08-30T04:57:50;11.30;99.90
57753;DHT22;43583;53.132;6.574;2023-08-30T05:00:17;11.30;99.90
57753;DHT22;43583;53.132;6.574;2023-08-30T05:02:42;11.30;99.90
57753;DHT22;43583;53.132;6.574;2023-08-30T05:05:09;11.30;99.90
57753;DHT22;43583;53.132;6.574;2023-08-30T05:07:35;11.40;99.90
57753;DHT22;43583;53.132;6.574;2023-08-30T05:10:01;11.50;99.90
57753;DHT22;43583;53.132;6.574;2023-08-30T05:12:26;11.50;99.90
57753;DHT22;43583;53.132;6.574;2023-08-30T05:14:52;11.60;99.90
57753;DHT22;43583;53.132;6.574;2023-08-30T05:17:18;11.60;99.90
57753;DHT22;43583;53.132;6.574;2023-08-30T05:19:44;11.70;99.90
57753;DHT22;43583;53.132;6.574;2023-08-30T05:22:09;11.70;99.90
57753;DHT22;43583;53.132;6.574;2023-08-30T05:24:35;11.70;99.90
57753;DHT22;43583;53.132;6.574;2023-08-30T05:27:01;11.80;99.90
57753;DHT22;43583;53.132;6.574;2023-08-30T05:29:27;11.90;99.90
57753;DHT22;43583;53.132;6.574;2023-08-30T05:31:52;11.90;99.90
57753;DHT22;43583;53.132;6.574;2023-08-30T05:34:18;12.00;99.90
57753;DHT22;43583;53.132;6.574;2023-08-30T05:36:43;12.10;99.90
57753;DHT22;43583;53.132;6.574;2023-08-30T05:39:09;12.20;99.90
57753;DHT22;43583;53.132;6.574;2023-08-30T05:41:35;12.30;99.90
57753;DHT22;43583;53.132;6.574;2023-08-30T05:44:00;12.50;99.90
57753;DHT22;43583;53.132;6.574;2023-08-30T05:46:26;12.60;99.90
57753;DHT22;43583;53.132;6.574;2023-08-30T05:48:52;12.70;99.90
57753;DHT22;43583;53.132;6.574;2023-08-30T05:51:17;12.90;99.90
57753;DHT22;43583;53.132;6.574;2023-08-30T05:53:45;13.00;99.90
57753;DHT22;43583;53.132;6.574;2023-08-30T05:56:11;13.10;99.90
57753;DHT22;43583;53.132;6.574;2023-08-30T05:58:36;13.20;99.90
57753;DHT22;43583;53.132;6.574;2023-08-30T06:01:03;13.40;99.90
57753;DHT22;43583;53.132;6.574;2023-08-30T06:03:31;13.60;99.90
57753;DHT22;43583;53.132;6.574;2023-08-30T06:05:57;13.80;99.90
57753;DHT22;43583;53.132;6.574;2023-08-30T06:08:22;14.00;99.90
57753;DHT22;43583;53.132;6.574;2023-08-30T06:10:48;14.20;99.90
57753;DHT22;43583;53.132;6.574;2023-08-30T06:13:14;14.40;99.90
57753;DHT22;43583;53.132;6.574;2023-08-30T06:15:39;14.50;99.90
57753;DHT22;43583;53.132;6.574;2023-08-30T06:18:05;14.50;99.90
57753;DHT22;43583;53.132;6.574;2023-08-30T06:20:30;14.60;99.90
57753;DHT22;43583;53.132;6.574;2023-08-30T06:22:58;14.80;99.90
57753;DHT22;43583;53.132;6.574;2023-08-30T06:25:24;15.00;99.90
57753;DHT22;43583;53.132;6.574;2023-08-30T06:27:59;15.20;99.90
57753;DHT22;43583;53.132;6.574;2023-08-30T06:30:27;15.30;99.90
57753;DHT22;43583;53.132;6.574;2023-08-30T06:32:54;15.40;99.90
57753;DHT22;43583;53.132;6.574;2023-08-30T06:35:19;15.60;99.90
57753;DHT22;43583;53.132;6.574;2023-08-30T06:37:45;15.90;99.90
57753;DHT22;43583;53.132;6.574;2023-08-30T06:40:11;16.20;99.90
57753;DHT22;43583;53.132;6.574;2023-08-30T06:42:37;16.30;99.90
57753;DHT22;43583;53.132;6.574;2023-08-30T06:45:04;16.30;99.90
57753;DHT22;43583;53.132;6.574;2023-08-30T06:47:29;16.30;99.90
57753;DHT22;43583;53.132;6.574;2023-08-30T06:49:55;16.60;99.90
57753;DHT22;43583;53.132;6.574;2023-08-30T06:52:21;16.60;99.90
57753;DHT22;43583;53.132;6.574;2023-08-30T06:54:46;16.40;99.90
57753;DHT22;43583;53.132;6.574;2023-08-30T06:57:12;16.20;99.90
57753;DHT22;43583;53.132;6.574;2023-08-30T06:59:37;15.90;99.90
57753;DHT22;43583;53.132;6.574;2023-08-30T07:02:03;15.70;99.90
57753;DHT22;43583;53.132;6.574;2023-08-30T07:04:29;15.50;99.90
57753;DHT22;43583;53.132;6.574;2023-08-30T07:06:55;15.40;99.90
57753;DHT22;43583;53.132;6.574;2023-08-30T07:09:20;15.40;99.90
57753;DHT22;43583;53.132;6.574;2023-08-30T07:11:48;15.20;99.90
57753;DHT22;43583;53.132;6.574;2023-08-30T07:14:14;15.30;99.90
57753;DHT22;43583;53.132;6.574;2023-08-30T07:16:40;15.20;99.90
57753;DHT22;43583;53.132;6.574;2023-08-30T07:19:06;15.10;99.90
57753;DHT22;43583;53.132;6.574;2023-08-30T07:21:32;15.10;99.90
57753;DHT22;43583;53.132;6.574;2023-08-30T07:23:58;15.00;99.90
57753;DHT22;43583;53.132;6.574;2023-08-30T07:26:24;15.00;99.90
57753;DHT22;43583;53.132;6.574;2023-08-30T07:28:49;14.90;99.90
57753;DHT22;43583;53.132;6.574;2023-08-30T07:31:15;15.00;99.90
57753;DHT22;43583;53.132;6.574;2023-08-30T07:33:46;15.10;99.90
57753;DHT22;43583;53.132;6.574;2023-08-30T07:36:11;15.30;99.90
57753;DHT22;43583;53.132;6.574;2023-08-30T07:38:38;15.50;99.90
57753;DHT22;43583;53.132;6.574;2023-08-30T07:41:03;15.70;99.90
57753;DHT22;43583;53.132;6.574;2023-08-30T07:43:29;15.90;99.90
57753;DHT22;43583;53.132;6.574;2023-08-30T07:45:55;16.10;99.90
57753;DHT22;43583;53.132;6.574;2023-08-30T07:48:22;16.40;99.90
57753;DHT22;43583;53.132;6.574;2023-08-30T07:50:47;16.70;99.90
57753;DHT22;43583;53.132;6.574;2023-08-30T07:53:13;16.90;99.90
57753;DHT22;43583;53.132;6.574;2023-08-30T07:55:38;17.20;99.90
57753;DHT22;43583;53.132;6.574;2023-08-30T07:58:04;17.30;99.90
57753;DHT22;43583;53.132;6.574;2023-08-30T08:00:30;17.40;99.90
57753;DHT22;43583;53.132;6.574;2023-08-30T08:02:55;17.30;99.90
57753;DHT22;43583;53.132;6.574;2023-08-30T08:05:21;17.10;99.90
57753;DHT22;43583;53.132;6.574;2023-08-30T08:07:52;17.00;99.90
57753;DHT22;43583;53.132;6.574;2023-08-30T08:10:19;17.00;99.90
57753;DHT22;43583;53.132;6.574;2023-08-30T08:12:45;17.20;99.90
57753;DHT22;43583;53.132;6.574;2023-08-30T08:15:11;17.60;99.90
57753;DHT22;43583;53.132;6.574;2023-08-30T08:17:40;18.00;99.90
57753;DHT22;43583;53.132;6.574;2023-08-30T08:20:06;18.30;99.90
57753;DHT22;43583;53.132;6.574;2023-08-30T08:22:35;18.30;99.90
57753;DHT22;43583;53.132;6.574;2023-08-30T08:25:01;18.30;99.90
57753;DHT22;43583;53.132;6.574;2023-08-30T08:27:27;18.20;99.90
57753;DHT22;43583;53.132;6.574;2023-08-30T08:29:53;18.00;99.90
57753;DHT22;43583;53.132;6.574;2023-08-30T08:32:19;17.90;99.90
57753;DHT22;43583;53.132;6.574;2023-08-30T08:34:45;17.90;99.90
57753;DHT22;43583;53.132;6.574;2023-08-30T08:37:11;17.80;99.90
57753;DHT22;43583;53.132;6.574;2023-08-30T08:39:37;17.80;99.90
57753;DHT22;43583;53.132;6.574;2023-08-30T08:42:03;17.90;99.90
57753;DHT22;43583;53.132;6.574;2023-08-30T08:44:32;17.90;99.90
57753;DHT22;43583;53.132;6.574;2023-08-30T08:46:59;18.00;99.90
57753;DHT22;43583;53.132;6.574;2023-08-30T08:49:26;18.10;99.90
57753;DHT22;43583;53.132;6.574;2023-08-30T08:51:53;18.30;99.90
57753;DHT22;43583;53.132;6.574;2023-08-30T08:54:20;18.50;99.90
57753;DHT22;43583;53.132;6.574;2023-08-30T08:56:46;18.60;99.90
57753;DHT22;43583;53.132;6.574;2023-08-30T08:59:12;18.60;99.90
57753;DHT22;43583;53.132;6.574;2023-08-30T09:01:39;18.50;99.90
57753;DHT22;43583;53.132;6.574;2023-08-30T09:04:11;18.50;99.90
57753;DHT22;43583;53.132;6.574;2023-08-30T09:06:38;18.40;99.90
57753;DHT22;43583;53.132;6.574;2023-08-30T09:09:09;18.20;99.90
57753;DHT22;43583;53.132;6.574;2023-08-30T09:11:34;18.10;99.90
57753;DHT22;43583;53.132;6.574;2023-08-30T09:14:00;17.90;99.90
57753;DHT22;43583;53.132;6.574;2023-08-30T09:16:27;17.70;99.90
57753;DHT22;43583;53.132;6.574;2023-08-30T09:18:59;17.50;99.90
57753;DHT22;43583;53.132;6.574;2023-08-30T09:21:26;17.40;99.90
57753;DHT22;43583;53.132;6.574;2023-08-30T09:24:03;17.20;99.90
57753;DHT22;43583;53.132;6.574;2023-08-30T09:26:30;17.10;99.90
57753;DHT22;43583;53.132;6.574;2023-08-30T09:29:08;17.10;99.90
57753;DHT22;43583;53.132;6.574;2023-08-30T09:31:38;17.10;99.90
57753;DHT22;43583;53.132;6.574;2023-08-30T09:34:06;17.10;99.90
57753;DHT22;43583;53.132;6.574;2023-08-30T09:36:41;17.10;99.90
57753;DHT22;43583;53.132;6.574;2023-08-30T09:39:09;17.00;99.90
57753;DHT22;43583;53.132;6.574;2023-08-30T09:41:43;17.00;99.90
57753;DHT22;43583;53.132;6.574;2023-08-30T09:44:10;17.00;99.90
57753;DHT22;43583;53.132;6.574;2023-08-30T09:46:48;16.90;99.90
57753;DHT22;43583;53.132;6.574;2023-08-30T09:49:14;16.90;99.90
57753;DHT22;43583;53.132;6.574;2023-08-30T09:51:41;16.90;99.90
57753;DHT22;43583;53.132;6.574;2023-08-30T09:54:14;16.90;99.90
57753;DHT22;43583;53.132;6.574;2023-08-30T09:56:42;17.00;99.90
57753;DHT22;43583;53.132;6.574;2023-08-30T09:59:13;17.00;99.90
57753;DHT22;43583;53.132;6.574;2023-08-30T10:01:40;17.10;99.90
57753;DHT22;43583;53.132;6.574;2023-08-30T10:04:10;17.20;99.90
57753;DHT22;43583;53.132;6.574;2023-08-30T10:06:38;17.40;99.90
57753;DHT22;43583;53.132;6.574;2023-08-30T10:09:04;17.50;99.90
57753;DHT22;43583;53.132;6.574;2023-08-30T10:11:32;17.60;99.90
57753;DHT22;43583;53.132;6.574;2023-08-30T10:14:00;17.70;99.90
57753;DHT22;43583;53.132;6.574;2023-08-30T10:16:27;17.80;99.90
57753;DHT22;43583;53.132;6.574;2023-08-30T10:19:06;18.00;99.90
57753;DHT22;43583;53.132;6.574;2023-08-30T10:21:35;18.10;99.90
57753;DHT22;43583;53.132;6.574;2023-08-30T10:24:02;18.30;99.90
57753;DHT22;43583;53.132;6.574;2023-08-30T10:26:29;18.40;99.90
57753;DHT22;43583;53.132;6.574;2023-08-30T10:28:57;18.60;99.90
57753;DHT22;43583;53.132;6.574;2023-08-30T10:31:23;18.80;99.90
57753;DHT22;43583;53.132;6.574;2023-08-30T10:33:53;19.00;99.90
57753;DHT22;43583;53.132;6.574;2023-08-30T10:36:22;19.40;99.90
57753;DHT22;43583;53.132;6.574;2023-08-30T10:38:50;19.70;99.90
57753;DHT22;43583;53.132;6.574;2023-08-30T10:41:20;19.90;99.90
57753;DHT22;43583;53.132;6.574;2023-08-30T10:43:50;19.90;99.90
57753;DHT22;43583;53.132;6.574;2023-08-30T10:46:17;19.90;99.90
57753;DHT22;43583;53.132;6.574;2023-08-30T10:48:42;19.80;99.90
57753;DHT22;43583;53.132;6.574;2023-08-30T10:51:34;19.80;99.90
57753;DHT22;43583;53.132;6.574;2023-08-30T10:54:01;19.80;99.90
57753;DHT22;43583;53.132;6.574;2023-08-30T10:56:35;19.80;99.90
57753;DHT22;43583;53.132;6.574;2023-08-30T10:59:02;19.60;99.90
57753;DHT22;43583;53.132;6.574;2023-08-30T11:01:28;19.50;99.90
57753;DHT22;43583;53.132;6.574;2023-08-30T11:03:55;19.30;99.90
57753;DHT22;43583;53.132;6.574;2023-08-30T11:06:21;19.10;99.90
57753;DHT22;43583;53.132;6.574;2023-08-30T11:08:48;18.90;99.90
57753;DHT22;43583;53.132;6.574;2023-08-30T11:11:14;18.80;99.90
57753;DHT22;43583;53.132;6.574;2023-08-30T11:13:40;18.70;99.90
57753;DHT22;43583;53.132;6.574;2023-08-30T11:16:05;18.50;99.90
57753;DHT22;43583;53.132;6.574;2023-08-30T11:18:36;18.40;99.90
57753;DHT22;43583;53.132;6.574;2023-08-30T11:21:03;18.30;99.90
57753;DHT22;43583;53.132;6.574;2023-08-30T11:23:29;18.30;99.90
57753;DHT22;43583;53.132;6.574;2023-08-30T11:25:55;18.30;99.90
57753;DHT22;43583;53.132;6.574;2023-08-30T11:28:25;18.50;99.90
57753;DHT22;43583;53.132;6.574;2023-08-30T11:30:54;18.90;99.90
57753;DHT22;43583;53.132;6.574;2023-08-30T11:33:23;19.20;99.90
57753;DHT22;43583;53.132;6.574;2023-08-30T11:35:50;19.40;99.90
57753;DHT22;43583;53.132;6.574;2023-08-30T11:38:17;19.60;99.90
57753;DHT22;43583;53.132;6.574;2023-08-30T11:40:44;19.60;99.90
57753;DHT22;43583;53.132;6.574;2023-08-30T11:43:10;19.70;99.90
57753;DHT22;43583;53.132;6.574;2023-08-30T11:45:36;19.70;99.90
57753;DHT22;43583;53.132;6.574;2023-08-30T11:48:02;19.60;99.90
57753;DHT22;43583;53.132;6.574;2023-08-30T11:50:28;19.40;99.90
57753;DHT22;43583;53.132;6.574;2023-08-30T11:52:54;19.20;99.90
57753;DHT22;43583;53.132;6.574;2023-08-30T11:55:21;19.00;99.90
57753;DHT22;43583;53.132;6.574;2023-08-30T11:57:50;18.80;99.90
57753;DHT22;43583;53.132;6.574;2023-08-30T12:00:19;18.60;99.90
57753;DHT22;43583;53.132;6.574;2023-08-30T12:02:46;18.50;99.90
57753;DHT22;43583;53.132;6.574;2023-08-30T12:05:12;18.30;99.90
57753;DHT22;43583;53.132;6.574;2023-08-30T12:07:38;18.20;99.90
57753;DHT22;43583;53.132;6.574;2023-08-30T12:10:10;18.10;99.90
57753;DHT22;43583;53.132;6.574;2023-08-30T12:12:37;18.00;99.90
57753;DHT22;43583;53.132;6.574;2023-08-30T12:15:13;17.90;99.90
57753;DHT22;43583;53.132;6.574;2023-08-30T12:17:42;17.70;99.90
57753;DHT22;43583;53.132;6.574;2023-08-30T12:20:15;17.50;99.90
57753;DHT22;43583;53.132;6.574;2023-08-30T12:22:42;17.50;99.90
57753;DHT22;43583;53.132;6.574;2023-08-30T12:25:18;17.30;99.90
57753;DHT22;43583;53.132;6.574;2023-08-30T12:27:44;17.30;99.90
57753;DHT22;43583;53.132;6.574;2023-08-30T12:30:21;17.20;99.90
57753;DHT22;43583;53.132;6.574;2023-08-30T12:32:47;17.10;99.90
57753;DHT22;43583;53.132;6.574;2023-08-30T12:35:19;17.00;99.90
57753;DHT22;43583;53.132;6.574;2023-08-30T12:37:45;17.00;99.90
57753;DHT22;43583;53.132;6.574;2023-08-30T12:40:11;17.00;99.90
57753;DHT22;43583;53.132;6.574;2023-08-30T12:42:37;17.00;99.90
57753;DHT22;43583;53.132;6.574;2023-08-30T12:45:03;17.00;99.90
57753;DHT22;43583;53.132;6.574;2023-08-30T12:47:29;17.00;99.90
57753;DHT22;43583;53.132;6.574;2023-08-30T12:49:54;17.00;99.90
57753;DHT22;43583;53.132;6.574;2023-08-30T12:52:20;17.10;99.90
57753;DHT22;43583;53.132;6.574;2023-08-30T12:54:45;17.10;99.90
57753;DHT22;43583;53.132;6.574;2023-08-30T12:57:11;17.00;99.90
57753;DHT22;43583;53.132;6.574;2023-08-30T12:59:37;17.00;99.90
57753;DHT22;43583;53.132;6.574;2023-08-30T13:02:02;17.10;99.90
57753;DHT22;43583;53.132;6.574;2023-08-30T13:04:28;17.10;99.90
57753;DHT22;43583;53.132;6.574;2023-08-30T13:06:54;17.10;99.90
57753;DHT22;43583;53.132;6.574;2023-08-30T13:09:19;17.20;99.90
57753;DHT22;43583;53.132;6.574;2023-08-30T13:11:45;17.20;99.90
57753;DHT22;43583;53.132;6.574;2023-08-30T13:14:10;17.20;99.90
57753;DHT22;43583;53.132;6.574;2023-08-30T13:16:36;17.10;99.90
57753;DHT22;43583;53.132;6.574;2023-08-30T13:19:01;17.10;99.90
57753;DHT22;43583;53.132;6.574;2023-08-30T13:21:28;17.10;99.90
57753;DHT22;43583;53.132;6.574;2023-08-30T13:23:53;17.00;99.90
57753;DHT22;43583;53.132;6.574;2023-08-30T13:26:19;17.10;99.90
57753;DHT22;43583;53.132;6.574;2023-08-30T13:28:45;17.10;99.90
57753;DHT22;43583;53.132;6.574;2023-08-30T13:31:10;17.00;99.90
57753;DHT22;43583;53.132;6.574;2023-08-30T13:33:36;17.00;99.90
57753;DHT22;43583;53.132;6.574;2023-08-30T13:36:01;16.90;99.90
57753;DHT22;43583;53.132;6.574;2023-08-30T13:38:28;16.80;99.90
57753;DHT22;43583;53.132;6.574;2023-08-30T13:41:00;16.70;99.90
57753;DHT22;43583;53.132;6.574;2023-08-30T13:43:26;16.60;99.90
57753;DHT22;43583;53.132;6.574;2023-08-30T13:46:01;16.40;99.90
57753;DHT22;43583;53.132;6.574;2023-08-30T13:48:26;16.40;99.90
57753;DHT22;43583;53.132;6.574;2023-08-30T13:50:52;16.20;99.90
57753;DHT22;43583;53.132;6.574;2023-08-30T13:53:18;16.10;99.90
57753;DHT22;43583;53.132;6.574;2023-08-30T13:55:47;16.10;99.90
57753;DHT22;43583;53.132;6.574;2023-08-30T13:58:14;16.10;99.90
57753;DHT22;43583;53.132;6.574;2023-08-30T14:00:40;16.00;99.90
57753;DHT22;43583;53.132;6.574;2023-08-30T14:03:09;16.00;99.90
57753;DHT22;43583;53.132;6.574;2023-08-30T14:05:44;15.90;99.90
57753;DHT22;43583;53.132;6.574;2023-08-30T14:08:49;15.90;99.90
57753;DHT22;43583;53.132;6.574;2023-08-30T14:14:48;15.80;99.90
57753;DHT22;43583;53.132;6.574;2023-08-30T14:17:35;15.80;99.90
57753;DHT22;43583;53.132;6.574;2023-08-30T14:20:06;15.90;99.90
57753;DHT22;43583;53.132;6.574;2023-08-30T14:22:37;16.00;99.90
57753;DHT22;43583;53.132;6.574;2023-08-30T14:25:03;16.00;99.90
57753;DHT22;43583;53.132;6.574;2023-08-30T14:27:30;16.00;99.90
57753;DHT22;43583;53.132;6.574;2023-08-30T14:30:09;16.00;99.90
57753;DHT22;43583;53.132;6.574;2023-08-30T14:32:57;16.10;99.90
57753;DHT22;43583;53.132;6.574;2023-08-30T14:35:44;16.20;99.90
57753;DHT22;43583;53.132;6.574;2023-08-30T14:38:22;16.30;99.90
57753;DHT22;43583;53.132;6.574;2023-08-30T14:41:08;16.50;99.90
57753;DHT22;43583;53.132;6.574;2023-08-30T14:43:42;16.60;99.90
57753;DHT22;43583;53.132;6.574;2023-08-30T14:46:08;16.60;99.90
57753;DHT22;43583;53.132;6.574;2023-08-30T14:48:40;16.60;99.90
57753;DHT22;43583;53.132;6.574;2023-08-30T14:51:16;16.60;99.90
57753;DHT22;43583;53.132;6.574;2023-08-30T14:53:45;16.70;99.90
57753;DHT22;43583;53.132;6.574;2023-08-30T14:56:19;16.80;99.90
57753;DHT22;43583;53.132;6.574;2023-08-30T14:58:45;16.90;99.90
57753;DHT22;43583;53.132;6.574;2023-08-30T15:01:15;17.10;99.90
57753;DHT22;43583;53.132;6.574;2023-08-30T15:03:41;17.20;99.90
57753;DHT22;43583;53.132;6.574;2023-08-30T15:06:07;17.20;99.90
57753;DHT22;43583;53.132;6.574;2023-08-30T15:08:33;17.20;99.90
57753;DHT22;43583;53.132;6.574;2023-08-30T15:10:58;17.30;99.90
57753;DHT22;43583;53.132;6.574;2023-08-30T15:13:24;17.30;99.90
57753;DHT22;43583;53.132;6.574;2023-08-30T15:15:50;17.30;99.90
57753;DHT22;43583;53.132;6.574;2023-08-30T15:18:16;17.30;99.90
57753;DHT22;43583;53.132;6.574;2023-08-30T15:20:41;17.30;99.90
57753;DHT22;43583;53.132;6.574;2023-08-30T15:23:09;17.40;99.90
57753;DHT22;43583;53.132;6.574;2023-08-30T15:25:42;17.60;99.90
57753;DHT22;43583;53.132;6.574;2023-08-30T15:28:08;17.80;99.90
57753;DHT22;43583;53.132;6.574;2023-08-30T15:30:33;17.90;99.90
57753;DHT22;43583;53.132;6.574;2023-08-30T15:32:59;17.90;99.90
57753;DHT22;43583;53.132;6.574;2023-08-30T15:35:25;17.90;99.90